sensor_id;sensor_type;location;lat;lon;timestamp;P1;durP1;ratioP1;P2;durP2;ratioP2
23588;SDS011;11972;48.078;11.876;2023-12-20T00:02:33;1.85;;;1.25;;
23588;SDS011;11972;48.078;11.876;2023-12-20T00:06:33;1.27;;;1.17;;
23588;SDS011;11972;48.078;11.876;2023-12-20T00:10:33;1.38;;;1.25;;
23588;SDS011;11972;48.078;11.876;2023-12-20T00:14:34;1.02;;;0.88;;
23588;SDS011;11972;48.078;11.876;2023-12-20T00:18:34;1.45;;;1.30;;
23588;SDS011;11972;48.078;11.876;2023-12-20T00:22:34;1.25;;;1.13;;
23588;SDS011;11972;48.078;11.876;2023-12-20T00:26:35;1.40;;;1.30;;
23588;SDS011;11972;48.078;11.876;2023-12-20T00:30:35;3.80;;;1.85;;
23588;SDS011;11972;48.078;11.876;2023-12-20T00:34:36;1.20;;;0.85;;
23588;SDS011;11972;48.078;11.876;2023-12-20T00:38:36;2.65;;;1.52;;
23588;SDS011;11972;48.078;11.876;2023-12-20T00:42:36;1.65;;;1.00;;
23588;SDS011;11972;48.078;11.876;2023-12-20T00:46:37;3.05;;;1.48;;
23588;SDS011;11972;48.078;11.876;2023-12-20T00:50:37;1.27;;;1.10;;
23588;SDS011;11972;48.078;11.876;2023-12-20T00:54:37;1.90;;;1.50;;
23588;SDS011;11972;48.078;11.876;2023-12-20T00:58:38;1.00;;;0.90;;
23588;SDS011;11972;48.078;11.876;2023-12-20T01:02:38;1.15;;;1.05;;
23588;SDS011;11972;48.078;11.876;2023-12-20T01:06:39;1.33;;;1.23;;
23588;SDS011;11972;48.078;11.876;2023-12-20T01:10:39;1.55;;;1.10;;
23588;SDS011;11972;48.078;11.876;2023-12-20T01:14:40;1.10;;;1.00;;
23588;SDS011;11972;48.078;11.876;2023-12-20T01:18:40;1.25;;;1.15;;
23588;SDS011;11972;48.078;11.876;2023-12-20T01:22:41;1.17;;;1.08;;
23588;SDS011;11972;48.078;11.876;2023-12-20T01:26:42;1.15;;;1.05;;
23588;SDS011;11972;48.078;11.876;2023-12-20T01:30:43;1.25;;;1.10;;
23588;SDS011;11972;48.078;11.876;2023-12-20T01:34:43;1.23;;;1.10;;
23588;SDS011;11972;48.078;11.876;2023-12-20T01:38:44;1.10;;;1.00;;
23588;SDS011;11972;48.078;11.876;2023-12-20T01:42:44;1.10;;;1.00;;
23588;SDS011;11972;48.078;11.876;2023-12-20T01:46:44;1.52;;;1.25;;
23588;SDS011;11972;48.078;11.876;2023-12-20T01:50:45;1.20;;;1.10;;
23588;SDS011;11972;48.078;11.876;2023-12-20T01:54:46;1.70;;;1.20;;
23588;SDS011;11972;48.078;11.876;2023-12-20T01:58:47;3.17;;;1.20;;
23588;SDS011;11972;48.078;11.876;2023-12-20T02:02:48;1.83;;;0.85;;
23588;SDS011;11972;48.078;11.876;2023-12-20T02:06:52;1.40;;;1.30;;
23588;SDS011;11972;48.078;11.876;2023-12-20T02:10:52;1.50;;;1.38;;
23588;SDS011;11972;48.078;11.876;2023-12-20T02:14:54;1.80;;;1.33;;
23588;SDS011;11972;48.078;11.876;2023-12-20T02:18:54;1.50;;;1.35;;
23588;SDS011;11972;48.078;11.876;2023-12-20T02:22:54;1.30;;;1.20;;
23588;SDS011;11972;48.078;11.876;2023-12-20T02:26:55;1.27;;;1.17;;
23588;SDS011;11972;48.078;11.876;2023-12-20T02:30:55;2.58;;;1.20;;
23588;SDS011;11972;48.078;11.876;2023-12-20T02:34:56;4.05;;;3.47;;
23588;SDS011;11972;48.078;11.876;2023-12-20T02:38:56;1.50;;;1.30;;
23588;SDS011;11972;48.078;11.876;2023-12-20T02:42:57;1.92;;;1.48;;
23588;SDS011;11972;48.078;11.876;2023-12-20T02:46:57;2.00;;;1.35;;
23588;SDS011;11972;48.078;11.876;2023-12-20T02:50:57;1.40;;;1.30;;
23588;SDS011;11972;48.078;11.876;2023-12-20T02:54:57;1.63;;;1.40;;
23588;SDS011;11972;48.078;11.876;2023-12-20T02:58:58;1.55;;;1.42;;
23588;SDS011;11972;48.078;11.876;2023-12-20T03:02:58;2.10;;;1.25;;
23588;SDS011;11972;48.078;11.876;2023-12-20T03:06:59;2.58;;;1.63;;
23588;SDS011;11972;48.078;11.876;2023-12-20T03:11:00;1.65;;;1.35;;
23588;SDS011;11972;48.078;11.876;2023-12-20T03:15:00;1.20;;;1.10;;
23588;SDS011;11972;48.078;11.876;2023-12-20T03:19:00;1.35;;;1.25;;
23588;SDS011;11972;48.078;11.876;2023-12-20T03:23:00;1.48;;;1.27;;
23588;SDS011;11972;48.078;11.876;2023-12-20T03:27:01;1.10;;;1.00;;
23588;SDS011;11972;48.078;11.876;2023-12-20T03:31:01;1.20;;;1.10;;
23588;SDS011;11972;48.078;11.876;2023-12-20T03:35:02;1.48;;;1.10;;
23588;SDS011;11972;48.078;11.876;2023-12-20T03:39:03;1.50;;;0.98;;
23588;SDS011;11972;48.078;11.876;2023-12-20T03:43:03;1.88;;;0.90;;
23588;SDS011;11972;48.078;11.876;2023-12-20T03:47:03;1.20;;;1.10;;
23588;SDS011;11972;48.078;11.876;2023-12-20T03:51:04;1.10;;;0.95;;
23588;SDS011;11972;48.078;11.876;2023-12-20T03:55:04;3.20;;;1.10;;
23588;SDS011;11972;48.078;11.876;2023-12-20T03:59:05;0.95;;;0.93;;
23588;SDS011;11972;48.078;11.876;2023-12-20T04:03:05;1.85;;;0.90;;
23588;SDS011;11972;48.078;11.876;2023-12-20T04:07:06;1.20;;;1.10;;
23588;SDS011;11972;48.078;11.876;2023-12-20T04:11:06;1.00;;;0.90;;
23588;SDS011;11972;48.078;11.876;2023-12-20T04:15:06;0.95;;;0.95;;
23588;SDS011;11972;48.078;11.876;2023-12-20T04:19:09;1.80;;;1.00;;
23588;SDS011;11972;48.078;11.876;2023-12-20T04:23:09;1.10;;;0.73;;
23588;SDS011;11972;48.078;11.876;2023-12-20T04:27:10;0.90;;;0.80;;
23588;SDS011;11972;48.078;11.876;2023-12-20T04:31:10;1.98;;;1.02;;
23588;SDS011;11972;48.078;11.876;2023-12-20T04:35:10;0.68;;;0.65;;
23588;SDS011;11972;48.078;11.876;2023-12-20T04:39:11;0.73;;;0.65;;
23588;SDS011;11972;48.078;11.876;2023-12-20T04:43:13;0.85;;;0.70;;
23588;SDS011;11972;48.078;11.876;2023-12-20T04:47:13;0.70;;;0.70;;
23588;SDS011;11972;48.078;11.876;2023-12-20T04:51:13;0.43;;;0.40;;
23588;SDS011;11972;48.078;11.876;2023-12-20T04:55:14;0.80;;;0.52;;
23588;SDS011;11972;48.078;11.876;2023-12-20T04:59:14;0.40;;;0.40;;
23588;SDS011;11972;48.078;11.876;2023-12-20T05:03:15;1.00;;;0.43;;
23588;SDS011;11972;48.078;11.876;2023-12-20T05:07:15;0.40;;;0.40;;
23588;SDS011;11972;48.078;11.876;2023-12-20T05:11:15;0.40;;;0.40;;
23588;SDS011;11972;48.078;11.876;2023-12-20T05:15:16;0.50;;;0.50;;
23588;SDS011;11972;48.078;11.876;2023-12-20T05:19:16;1.80;;;0.70;;
23588;SDS011;11972;48.078;11.876;2023-12-20T05:23:16;1.33;;;0.60;;
23588;SDS011;11972;48.078;11.876;2023-12-20T05:27:18;0.70;;;0.70;;
23588;SDS011;11972;48.078;11.876;2023-12-20T05:31:18;0.77;;;0.60;;
23588;SDS011;11972;48.078;11.876;2023-12-20T05:35:19;1.95;;;0.95;;
23588;SDS011;11972;48.078;11.876;2023-12-20T05:39:19;1.02;;;0.82;;
23588;SDS011;11972;48.078;11.876;2023-12-20T05:43:19;0.95;;;0.90;;
23588;SDS011;11972;48.078;11.876;2023-12-20T05:47:20;0.70;;;0.70;;
23588;SDS011;11972;48.078;11.876;2023-12-20T05:51:20;1.17;;;0.80;;
23588;SDS011;11972;48.078;11.876;2023-12-20T05:55:20;0.93;;;0.77;;
23588;SDS011;11972;48.078;11.876;2023-12-20T05:59:21;1.58;;;1.20;;
23588;SDS011;11972;48.078;11.876;2023-12-20T06:03:21;1.10;;;0.90;;
23588;SDS011;11972;48.078;11.876;2023-12-20T06:07:21;1.95;;;1.10;;
23588;SDS011;11972;48.078;11.876;2023-12-20T06:11:21;1.00;;;0.80;;
23588;SDS011;11972;48.078;11.876;2023-12-20T06:15:22;0.80;;;0.70;;
23588;SDS011;11972;48.078;11.876;2023-12-20T06:19:23;1.42;;;0.73;;
23588;SDS011;11972;48.078;11.876;2023-12-20T06:23:23;0.85;;;0.80;;
23588;SDS011;11972;48.078;11.876;2023-12-20T06:27:23;0.80;;;0.70;;
23588;SDS011;11972;48.078;11.876;2023-12-20T06:31:24;1.00;;;0.90;;
23588;SDS011;11972;48.078;11.876;2023-12-20T06:35:24;0.90;;;0.63;;
23588;SDS011;11972;48.078;11.876;2023-12-20T06:39:24;0.70;;;0.68;;
23588;SDS011;11972;48.078;11.876;2023-12-20T06:43:25;1.77;;;0.98;;
23588;SDS011;11972;48.078;11.876;2023-12-20T06:47:25;2.15;;;0.73;;
23588;SDS011;11972;48.078;11.876;2023-12-20T06:51:27;2.70;;;0.93;;
23588;SDS011;11972;48.078;11.876;2023-12-20T06:55:28;0.70;;;0.70;;
23588;SDS011;11972;48.078;11.876;2023-12-20T06:59:29;1.50;;;0.75;;
23588;SDS011;11972;48.078;11.876;2023-12-20T07:03:30;3.97;;;0.73;;
23588;SDS011;11972;48.078;11.876;2023-12-20T07:07:30;0.77;;;0.60;;
23588;SDS011;11972;48.078;11.876;2023-12-20T07:11:30;2.33;;;0.60;;
23588;SDS011;11972;48.078;11.876;2023-12-20T07:15:30;0.40;;;0.40;;
23588;SDS011;11972;48.078;11.876;2023-12-20T07:19:31;0.57;;;0.50;;
23588;SDS011;11972;48.078;11.876;2023-12-20T07:23:32;0.47;;;0.47;;
23588;SDS011;11972;48.078;11.876;2023-12-20T07:27:32;0.47;;;0.40;;
23588;SDS011;11972;48.078;11.876;2023-12-20T07:31:33;0.40;;;0.40;;
23588;SDS011;11972;48.078;11.876;2023-12-20T07:35:34;0.30;;;0.30;;
23588;SDS011;11972;48.078;11.876;2023-12-20T07:39:35;0.30;;;0.30;;
23588;SDS011;11972;48.078;11.876;2023-12-20T07:43:35;0.40;;;0.30;;
23588;SDS011;11972;48.078;11.876;2023-12-20T07:47:35;3.47;;;1.25;;
23588;SDS011;11972;48.078;11.876;2023-12-20T07:51:36;0.32;;;0.30;;
23588;SDS011;11972;48.078;11.876;2023-12-20T07:55:36;0.85;;;0.82;;
23588;SDS011;11972;48.078;11.876;2023-12-20T07:59:36;0.30;;;0.30;;
23588;SDS011;11972;48.078;11.876;2023-12-20T08:03:38;1.38;;;0.40;;
23588;SDS011;11972;48.078;11.876;2023-12-20T08:07:38;0.38;;;0.38;;
23588;SDS011;11972;48.078;11.876;2023-12-20T08:11:38;0.50;;;0.50;;
23588;SDS011;11972;48.078;11.876;2023-12-20T08:15:39;0.40;;;0.40;;
23588;SDS011;11972;48.078;11.876;2023-12-20T08:19:39;0.98;;;0.40;;
23588;SDS011;11972;48.078;11.876;2023-12-20T08:23:39;0.38;;;0.30;;
23588;SDS011;11972;48.078;11.876;2023-12-20T08:27:40;1.42;;;0.40;;
23588;SDS011;11972;48.078;11.876;2023-12-20T08:31:41;0.57;;;0.40;;
23588;SDS011;11972;48.078;11.876;2023-12-20T08:35:41;0.40;;;0.40;;
23588;SDS011;11972;48.078;11.876;2023-12-20T08:39:42;0.75;;;0.40;;
23588;SDS011;11972;48.078;11.876;2023-12-20T08:43:44;0.30;;;0.30;;
23588;SDS011;11972;48.078;11.876;2023-12-20T08:47:44;0.73;;;0.35;;
23588;SDS011;11972;48.078;11.876;2023-12-20T08:51:45;1.30;;;0.40;;
23588;SDS011;11972;48.078;11.876;2023-12-20T08:55:46;0.40;;;0.40;;
23588;SDS011;11972;48.078;11.876;2023-12-20T08:59:47;0.80;;;0.50;;
23588;SDS011;11972;48.078;11.876;2023-12-20T09:03:47;0.57;;;0.50;;
23588;SDS011;11972;48.078;11.876;2023-12-20T09:07:48;1.90;;;0.40;;
23588;SDS011;11972;48.078;11.876;2023-12-20T09:11:48;1.40;;;0.35;;
23588;SDS011;11972;48.078;11.876;2023-12-20T09:15:51;0.25;;;0.25;;
23588;SDS011;11972;48.078;11.876;2023-12-20T09:19:51;0.80;;;0.30;;
23588;SDS011;11972;48.078;11.876;2023-12-20T09:23:53;2.22;;;0.90;;
23588;SDS011;11972;48.078;11.876;2023-12-20T09:27:54;0.68;;;0.30;;
23588;SDS011;11972;48.078;11.876;2023-12-20T09:31:54;0.30;;;0.30;;
23588;SDS011;11972;48.078;11.876;2023-12-20T09:35:55;0.80;;;0.50;;
23588;SDS011;11972;48.078;11.876;2023-12-20T09:39:55;0.45;;;0.30;;
23588;SDS011;11972;48.078;11.876;2023-12-20T09:43:55;0.30;;;0.30;;
23588;SDS011;11972;48.078;11.876;2023-12-20T09:48:00;0.43;;;0.35;;
23588;SDS011;11972;48.078;11.876;2023-12-20T09:52:02;0.50;;;0.40;;
23588;SDS011;11972;48.078;11.876;2023-12-20T09:56:05;0.98;;;0.40;;
23588;SDS011;11972;48.078;11.876;2023-12-20T10:00:06;0.40;;;0.40;;
23588;SDS011;11972;48.078;11.876;2023-12-20T10:04:07;0.65;;;0.50;;
23588;SDS011;11972;48.078;11.876;2023-12-20T10:08:12;0.65;;;0.50;;
23588;SDS011;11972;48.078;11.876;2023-12-20T10:12:12;0.50;;;0.40;;
23588;SDS011;11972;48.078;11.876;2023-12-20T10:16:13;1.23;;;0.30;;
23588;SDS011;11972;48.078;11.876;2023-12-20T10:20:13;0.30;;;0.30;;
23588;SDS011;11972;48.078;11.876;2023-12-20T10:24:17;0.60;;;0.40;;
23588;SDS011;11972;48.078;11.876;2023-12-20T10:28:18;0.35;;;0.30;;
23588;SDS011;11972;48.078;11.876;2023-12-20T10:32:26;1.20;;;0.30;;
23588;SDS011;11972;48.078;11.876;2023-12-20T10:36:28;0.97;;;0.30;;
23588;SDS011;11972;48.078;11.876;2023-12-20T10:40:29;0.57;;;0.50;;
23588;SDS011;11972;48.078;11.876;2023-12-20T10:44:30;0.40;;;0.40;;
23588;SDS011;11972;48.078;11.876;2023-12-20T10:48:30;0.30;;;0.30;;
23588;SDS011;11972;48.078;11.876;2023-12-20T10:52:32;0.82;;;0.30;;
23588;SDS011;11972;48.078;11.876;2023-12-20T10:56:34;0.50;;;0.40;;
23588;SDS011;11972;48.078;11.876;2023-12-20T11:00:40;0.50;;;0.30;;
23588;SDS011;11972;48.078;11.876;2023-12-20T11:05:06;0.30;;;0.30;;
23588;SDS011;11972;48.078;11.876;2023-12-20T11:09:16;0.40;;;0.40;;
23588;SDS011;11972;48.078;11.876;2023-12-20T11:13:20;0.20;;;0.20;;
23588;SDS011;11972;48.078;11.876;2023-12-20T11:17:23;0.40;;;0.40;;
23588;SDS011;11972;48.078;11.876;2023-12-20T11:21:24;0.28;;;0.28;;
23588;SDS011;11972;48.078;11.876;2023-12-20T11:25:25;0.40;;;0.40;;
23588;SDS011;11972;48.078;11.876;2023-12-20T11:29:30;0.63;;;0.40;;
23588;SDS011;11972;48.078;11.876;2023-12-20T11:33:36;0.60;;;0.57;;
23588;SDS011;11972;48.078;11.876;2023-12-20T11:37:37;0.55;;;0.50;;
23588;SDS011;11972;48.078;11.876;2023-12-20T11:41:44;0.60;;;0.60;;
23588;SDS011;11972;48.078;11.876;2023-12-20T11:45:48;0.52;;;0.50;;
23588;SDS011;11972;48.078;11.876;2023-12-20T11:49:50;0.50;;;0.50;;
23588;SDS011;11972;48.078;11.876;2023-12-20T11:53:51;1.15;;;0.57;;
23588;SDS011;11972;48.078;11.876;2023-12-20T11:57:52;0.77;;;0.70;;
23588;SDS011;11972;48.078;11.876;2023-12-20T12:01:53;0.57;;;0.57;;
23588;SDS011;11972;48.078;11.876;2023-12-20T12:05:56;0.80;;;0.80;;
23588;SDS011;11972;48.078;11.876;2023-12-20T12:09:57;0.70;;;0.70;;
23588;SDS011;11972;48.078;11.876;2023-12-20T12:13:58;1.15;;;0.60;;
23588;SDS011;11972;48.078;11.876;2023-12-20T12:17:58;0.85;;;0.80;;
23588;SDS011;11972;48.078;11.876;2023-12-20T12:22:05;0.60;;;0.60;;
23588;SDS011;11972;48.078;11.876;2023-12-20T12:26:13;0.60;;;0.60;;
23588;SDS011;11972;48.078;11.876;2023-12-20T12:30:15;0.50;;;0.50;;
23588;SDS011;11972;48.078;11.876;2023-12-20T12:34:18;0.50;;;0.47;;
23588;SDS011;11972;48.078;11.876;2023-12-20T12:38:22;0.82;;;0.45;;
23588;SDS011;11972;48.078;11.876;2023-12-20T12:42:23;0.45;;;0.45;;
23588;SDS011;11972;48.078;11.876;2023-12-20T12:46:28;0.50;;;0.50;;
23588;SDS011;11972;48.078;11.876;2023-12-20T12:50:29;0.30;;;0.30;;
23588;SDS011;11972;48.078;11.876;2023-12-20T12:54:30;0.35;;;0.32;;
23588;SDS011;11972;48.078;11.876;2023-12-20T12:58:31;0.80;;;0.38;;
23588;SDS011;11972;48.078;11.876;2023-12-20T13:02:31;0.40;;;0.30;;
23588;SDS011;11972;48.078;11.876;2023-12-20T13:06:32;0.30;;;0.30;;
23588;SDS011;11972;48.078;11.876;2023-12-20T13:10:32;0.38;;;0.30;;
23588;SDS011;11972;48.078;11.876;2023-12-20T13:14:33;0.55;;;0.30;;
23588;SDS011;11972;48.078;11.876;2023-12-20T13:18:35;0.57;;;0.40;;
23588;SDS011;11972;48.078;11.876;2023-12-20T13:22:35;0.40;;;0.40;;
23588;SDS011;11972;48.078;11.876;2023-12-20T13:26:35;0.32;;;0.32;;
23588;SDS011;11972;48.078;11.876;2023-12-20T13:30:36;0.70;;;0.40;;
23588;SDS011;11972;48.078;11.876;2023-12-20T13:34:36;1.58;;;0.50;;
23588;SDS011;11972;48.078;11.876;2023-12-20T13:38:37;0.60;;;0.38;;
23588;SDS011;11972;48.078;11.876;2023-12-20T13:42:37;2.45;;;1.10;;
23588;SDS011;11972;48.078;11.876;2023-12-20T13:46:37;2.83;;;2.63;;
23588;SDS011;11972;48.078;11.876;2023-12-20T13:50:37;2.67;;;2.47;;
23588;SDS011;11972;48.078;11.876;2023-12-20T13:54:38;2.40;;;2.20;;
23588;SDS011;11972;48.078;11.876;2023-12-20T13:58:38;3.35;;;2.40;;
23588;SDS011;11972;48.078;11.876;2023-12-20T14:02:42;3.03;;;2.28;;
23588;SDS011;11972;48.078;11.876;2023-12-20T14:06:43;2.72;;;2.40;;
23588;SDS011;11972;48.078;11.876;2023-12-20T14:10:43;2.83;;;2.60;;
23588;SDS011;11972;48.078;11.876;2023-12-20T14:14:44;4.43;;;3.10;;
23588;SDS011;11972;48.078;11.876;2023-12-20T14:18:45;3.28;;;2.97;;
23588;SDS011;11972;48.078;11.876;2023-12-20T14:22:45;3.40;;;3.10;;
23588;SDS011;11972;48.078;11.876;2023-12-20T14:26:46;3.70;;;3.03;;
23588;SDS011;11972;48.078;11.876;2023-12-20T14:30:46;4.03;;;3.05;;
23588;SDS011;11972;48.078;11.876;2023-12-20T14:34:47;3.78;;;2.97;;
23588;SDS011;11972;48.078;11.876;2023-12-20T14:38:47;4.13;;;3.05;;
23588;SDS011;11972;48.078;11.876;2023-12-20T14:42:48;4.90;;;3.50;;
23588;SDS011;11972;48.078;11.876;2023-12-20T14:46:49;3.20;;;2.90;;
23588;SDS011;11972;48.078;11.876;2023-12-20T14:50:50;3.63;;;3.03;;
23588;SDS011;11972;48.078;11.876;2023-12-20T14:54:53;3.25;;;2.95;;
23588;SDS011;11972;48.078;11.876;2023-12-20T14:58:53;4.30;;;3.00;;
23588;SDS011;11972;48.078;11.876;2023-12-20T15:02:54;2.75;;;2.30;;
23588;SDS011;11972;48.078;11.876;2023-12-20T15:06:54;5.25;;;2.20;;
23588;SDS011;11972;48.078;11.876;2023-12-20T15:10:55;5.22;;;2.17;;
23588;SDS011;11972;48.078;11.876;2023-12-20T15:14:55;3.47;;;2.20;;
23588;SDS011;11972;48.078;11.876;2023-12-20T15:18:56;4.80;;;2.28;;
23588;SDS011;11972;48.078;11.876;2023-12-20T15:22:57;3.25;;;2.40;;
23588;SDS011;11972;48.078;11.876;2023-12-20T15:26:59;5.65;;;2.92;;
23588;SDS011;11972;48.078;11.876;2023-12-20T15:30:59;3.42;;;2.53;;
23588;SDS011;11972;48.078;11.876;2023-12-20T15:34:59;3.17;;;2.13;;
23588;SDS011;11972;48.078;11.876;2023-12-20T15:38:59;5.15;;;2.58;;
23588;SDS011;11972;48.078;11.876;2023-12-20T15:43:00;3.42;;;2.17;;
23588;SDS011;11972;48.078;11.876;2023-12-20T15:47:00;3.72;;;2.08;;
23588;SDS011;11972;48.078;11.876;2023-12-20T15:51:04;2.10;;;1.70;;
23588;SDS011;11972;48.078;11.876;2023-12-20T15:55:05;2.15;;;1.17;;
23588;SDS011;11972;48.078;11.876;2023-12-20T15:59:06;1.88;;;1.40;;
23588;SDS011;11972;48.078;11.876;2023-12-20T16:03:06;1.58;;;0.98;;
23588;SDS011;11972;48.078;11.876;2023-12-20T16:07:06;1.80;;;1.25;;
23588;SDS011;11972;48.078;11.876;2023-12-20T16:11:07;2.45;;;1.00;;
23588;SDS011;11972;48.078;11.876;2023-12-20T16:15:08;3.15;;;1.08;;
23588;SDS011;11972;48.078;11.876;2023-12-20T16:19:09;2.83;;;1.20;;
23588;SDS011;11972;48.078;11.876;2023-12-20T16:23:09;3.55;;;1.40;;
23588;SDS011;11972;48.078;11.876;2023-12-20T16:27:10;1.27;;;1.00;;
23588;SDS011;11972;48.078;11.876;2023-12-20T16:31:10;1.30;;;0.93;;
23588;SDS011;11972;48.078;11.876;2023-12-20T16:35:10;4.00;;;1.10;;
23588;SDS011;11972;48.078;11.876;2023-12-20T16:39:11;1.15;;;0.88;;
23588;SDS011;11972;48.078;11.876;2023-12-20T16:43:11;3.30;;;1.20;;
23588;SDS011;11972;48.078;11.876;2023-12-20T16:47:11;2.08;;;1.00;;
23588;SDS011;11972;48.078;11.876;2023-12-20T16:51:12;1.92;;;1.10;;
23588;SDS011;11972;48.078;11.876;2023-12-20T16:55:13;1.25;;;1.00;;
23588;SDS011;11972;48.078;11.876;2023-12-20T16:59:14;1.83;;;1.02;;
23588;SDS011;11972;48.078;11.876;2023-12-20T17:03:14;2.78;;;1.10;;
23588;SDS011;11972;48.078;11.876;2023-12-20T17:07:15;1.33;;;0.95;;
23588;SDS011;11972;48.078;11.876;2023-12-20T17:11:16;1.77;;;1.20;;
23588;SDS011;11972;48.078;11.876;2023-12-20T17:15:17;1.90;;;1.00;;
23588;SDS011;11972;48.078;11.876;2023-12-20T17:19:17;1.67;;;1.10;;
23588;SDS011;11972;48.078;11.876;2023-12-20T17:23:20;1.73;;;1.05;;
23588;SDS011;11972;48.078;11.876;2023-12-20T17:27:20;1.77;;;1.10;;
23588;SDS011;11972;48.078;11.876;2023-12-20T17:31:20;2.78;;;0.88;;
23588;SDS011;11972;48.078;11.876;2023-12-20T17:35:21;0.80;;;0.80;;
23588;SDS011;11972;48.078;11.876;2023-12-20T17:39:21;2.22;;;0.98;;
23588;SDS011;11972;48.078;11.876;2023-12-20T17:43:21;1.90;;;0.90;;
23588;SDS011;11972;48.078;11.876;2023-12-20T17:47:21;1.65;;;1.20;;
23588;SDS011;11972;48.078;11.876;2023-12-20T17:51:22;1.13;;;0.90;;
23588;SDS011;11972;48.078;11.876;2023-12-20T17:55:22;2.38;;;1.00;;
23588;SDS011;11972;48.078;11.876;2023-12-20T17:59:23;2.58;;;1.10;;
23588;SDS011;11972;48.078;11.876;2023-12-20T18:03:24;1.27;;;0.85;;
23588;SDS011;11972;48.078;11.876;2023-12-20T18:07:24;2.33;;;0.90;;
23588;SDS011;11972;48.078;11.876;2023-12-20T18:11:25;1.40;;;0.80;;
23588;SDS011;11972;48.078;11.876;2023-12-20T18:15:25;1.73;;;0.70;;
23588;SDS011;11972;48.078;11.876;2023-12-20T18:19:25;1.17;;;0.82;;
23588;SDS011;11972;48.078;11.876;2023-12-20T18:23:26;2.47;;;0.70;;
23588;SDS011;11972;48.078;11.876;2023-12-20T18:27:26;2.38;;;0.50;;
23588;SDS011;11972;48.078;11.876;2023-12-20T18:31:26;2.15;;;0.70;;
23588;SDS011;11972;48.078;11.876;2023-12-20T18:35:27;0.82;;;0.50;;
23588;SDS011;11972;48.078;11.876;2023-12-20T18:39:27;1.15;;;0.50;;
23588;SDS011;11972;48.078;11.876;2023-12-20T18:43:27;2.15;;;0.60;;
23588;SDS011;11972;48.078;11.876;2023-12-20T18:47:28;2.78;;;0.60;;
23588;SDS011;11972;48.078;11.876;2023-12-20T18:51:28;1.40;;;0.60;;
23588;SDS011;11972;48.078;11.876;2023-12-20T18:55:28;2.03;;;0.68;;
23588;SDS011;11972;48.078;11.876;2023-12-20T18:59:29;0.70;;;0.30;;
23588;SDS011;11972;48.078;11.876;2023-12-20T19:03:29;2.55;;;0.60;;
23588;SDS011;11972;48.078;11.876;2023-12-20T19:07:30;2.05;;;0.40;;
23588;SDS011;11972;48.078;11.876;2023-12-20T19:11:30;1.00;;;0.50;;
23588;SDS011;11972;48.078;11.876;2023-12-20T19:15:32;1.08;;;0.45;;
23588;SDS011;11972;48.078;11.876;2023-12-20T19:19:32;1.25;;;0.47;;
23588;SDS011;11972;48.078;11.876;2023-12-20T19:23:33;2.03;;;0.50;;
23588;SDS011;11972;48.078;11.876;2023-12-20T19:27:36;1.77;;;0.50;;
23588;SDS011;11972;48.078;11.876;2023-12-20T19:31:37;0.73;;;0.50;;
23588;SDS011;11972;48.078;11.876;2023-12-20T19:35:37;0.85;;;0.50;;
23588;SDS011;11972;48.078;11.876;2023-12-20T19:39:37;0.75;;;0.50;;
23588;SDS011;11972;48.078;11.876;2023-12-20T19:43:38;1.13;;;0.50;;
23588;SDS011;11972;48.078;11.876;2023-12-20T19:47:39;1.35;;;0.50;;
23588;SDS011;11972;48.078;11.876;2023-12-20T19:51:39;0.95;;;0.50;;
23588;SDS011;11972;48.078;11.876;2023-12-20T19:55:40;1.42;;;0.50;;
23588;SDS011;11972;48.078;11.876;2023-12-20T19:59:41;1.10;;;0.50;;
23588;SDS011;11972;48.078;11.876;2023-12-20T20:03:42;0.90;;;0.50;;
23588;SDS011;11972;48.078;11.876;2023-12-20T20:07:42;1.15;;;0.70;;
23588;SDS011;11972;48.078;11.876;2023-12-20T20:11:42;2.60;;;0.77;;
23588;SDS011;11972;48.078;11.876;2023-12-20T20:15:43;1.02;;;0.60;;
23588;SDS011;11972;48.078;11.876;2023-12-20T20:19:43;2.28;;;0.70;;
23588;SDS011;11972;48.078;11.876;2023-12-20T20:23:44;0.90;;;0.60;;
23588;SDS011;11972;48.078;11.876;2023-12-20T20:27:44;1.65;;;0.88;;
23588;SDS011;11972;48.078;11.876;2023-12-20T20:31:44;1.80;;;0.85;;
23588;SDS011;11972;48.078;11.876;2023-12-20T20:35:45;0.80;;;0.50;;
23588;SDS011;11972;48.078;11.876;2023-12-20T20:39:45;2.13;;;1.08;;
23588;SDS011;11972;48.078;11.876;2023-12-20T20:43:45;1.45;;;0.70;;
23588;SDS011;11972;48.078;11.876;2023-12-20T20:47:46;2.55;;;0.80;;
23588;SDS011;11972;48.078;11.876;2023-12-20T20:51:46;1.90;;;0.80;;
23588;SDS011;11972;48.078;11.876;2023-12-20T20:55:46;1.33;;;0.70;;
23588;SDS011;11972;48.078;11.876;2023-12-20T20:59:47;1.42;;;0.90;;
23588;SDS011;11972;48.078;11.876;2023-12-20T21:03:47;1.00;;;0.70;;
23588;SDS011;11972;48.078;11.876;2023-12-20T21:07:47;1.35;;;0.60;;
23588;SDS011;11972;48.078;11.876;2023-12-20T21:11:48;0.68;;;0.60;;
23588;SDS011;11972;48.078;11.876;2023-12-20T21:15:48;1.77;;;0.70;;
23588;SDS011;11972;48.078;11.876;2023-12-20T21:19:48;2.17;;;0.70;;
23588;SDS011;11972;48.078;11.876;2023-12-20T21:23:49;1.35;;;0.70;;
23588;SDS011;11972;48.078;11.876;2023-12-20T21:27:49;1.35;;;0.70;;
23588;SDS011;11972;48.078;11.876;2023-12-20T21:31:49;2.30;;;0.50;;
23588;SDS011;11972;48.078;11.876;2023-12-20T21:35:50;0.57;;;0.47;;
23588;SDS011;11972;48.078;11.876;2023-12-20T21:39:50;1.00;;;0.60;;
23588;SDS011;11972;48.078;11.876;2023-12-20T21:43:51;1.13;;;0.70;;
23588;SDS011;11972;48.078;11.876;2023-12-20T21:47:52;0.88;;;0.55;;
23588;SDS011;11972;48.078;11.876;2023-12-20T21:51:53;1.10;;;0.50;;
23588;SDS011;11972;48.078;11.876;2023-12-20T21:55:53;1.77;;;0.47;;
23588;SDS011;11972;48.078;11.876;2023-12-20T21:59:54;1.20;;;0.50;;
23588;SDS011;11972;48.078;11.876;2023-12-20T22:03:55;2.40;;;0.55;;
23588;SDS011;11972;48.078;11.876;2023-12-20T22:07:58;0.88;;;0.40;;
23588;SDS011;11972;48.078;11.876;2023-12-20T22:11:59;2.67;;;0.60;;
23588;SDS011;11972;48.078;11.876;2023-12-20T22:16:01;0.73;;;0.32;;
23588;SDS011;11972;48.078;11.876;2023-12-20T22:20:02;1.33;;;0.68;;
23588;SDS011;11972;48.078;11.876;2023-12-20T22:24:02;1.35;;;0.30;;
23588;SDS011;11972;48.078;11.876;2023-12-20T22:28:03;0.25;;;0.20;;
23588;SDS011;11972;48.078;11.876;2023-12-20T22:32:04;1.17;;;0.38;;
23588;SDS011;11972;48.078;11.876;2023-12-20T22:36:07;1.42;;;0.40;;
23588;SDS011;11972;48.078;11.876;2023-12-20T22:40:08;2.35;;;0.40;;
23588;SDS011;11972;48.078;11.876;2023-12-20T22:44:10;1.42;;;0.30;;
23588;SDS011;11972;48.078;11.876;2023-12-20T22:48:10;0.93;;;0.40;;
23588;SDS011;11972;48.078;11.876;2023-12-20T22:52:11;1.42;;;0.40;;
23588;SDS011;11972;48.078;11.876;2023-12-20T22:56:11;0.35;;;0.35;;
23588;SDS011;11972;48.078;11.876;2023-12-20T23:00:12;0.82;;;0.32;;
23588;SDS011;11972;48.078;11.876;2023-12-20T23:04:16;0.75;;;0.30;;
23588;SDS011;11972;48.078;11.876;2023-12-20T23:08:17;1.35;;;0.40;;
23588;SDS011;11972;48.078;11.876;2023-12-20T23:12:17;0.65;;;0.30;;
23588;SDS011;11972;48.078;11.876;2023-12-20T23:16:18;1.70;;;0.35;;
23588;SDS011;11972;48.078;11.876;2023-12-20T23:20:18;0.20;;;0.20;;
23588;SDS011;11972;48.078;11.876;2023-12-20T23:24:18;0.85;;;0.30;;
23588;SDS011;11972;48.078;11.876;2023-12-20T23:28:19;1.00;;;0.50;;
23588;SDS011;11972;48.078;11.876;2023-12-20T23:32:19;0.20;;;0.20;;
23588;SDS011;11972;48.078;11.876;2023-12-20T23:36:20;0.40;;;0.30;;
23588;SDS011;11972;48.078;11.876;2023-12-20T23:40:20;0.60;;;0.30;;
23588;SDS011;11972;48.078;11.876;2023-12-20T23:44:20;1.33;;;0.40;;
23588;SDS011;11972;48.078;11.876;2023-12-20T23:48:21;0.77;;;0.30;;